PWSweather.com
Personal Weather Stations
Station Observations
INEWSOUT98
ArmidaleAU 2350

ArmidaleAU 2350

Lat: -30.517, Lon: 151.656

Elevation: 3265

Station Type: CampbellSci

http://www.armidaleweather.com

Latest ConditionsUpdated 12:30:02 PM GMT+10:10 Saturday, Feb 24, 2018
Currently Today's Max Today's Min Today's Average
Temperature 76.5°F24.7°C 79.2°F26.2°C 64.9°F18.3°C 69.6°F20.9°C
Dew Point 70.2°F21.2°C 71.4°F21.9°C 64.0°F17.8°C 65.6°F18.7°C
Winds 2.3 mph NE3.7 kmh NE 3.9 mph NNE6.3 kmh NNE - 1.2 mph 1.9 kmh
Wind Gusts 9.8 mph15.8 kmh 14.3 mph23.0 kmh - -
Humidity 81% 99% 64% 88%
Pressure 30.04 in1017.3 mb 30.12 in1020.0 mb 30.04 in1017.3 mb -
Precipitation - 0.09 in2.3 mm - -
Hour Temp Dew Point Humidity Winds Wind Gusts Pressure Precip Precip Rate Daily Precip Total
12:30 PM 76.5°F24.7°C 70.2°F21.2°C 81% 2.3 mph NE3.7 kmh NE 9.8 mph15.8 kmh 30.04 in1017.3 mb 0.09 in2.3 mm 1.08 in27.4 mm 0.09 in2.3 mm
12:25 PM 76.8°F24.9°C 69.8°F21.0°C 79% 1.3 mph ENE2.1 kmh ENE 8.3 mph13.4 kmh 30.04 in1017.3 mb 0.00 in0.0 mm 0.00 in0.0 mm 0.00 in0.0 mm
12:20 PM 77.0°F25.0°C 70.7°F21.5°C 81% 0.5 mph NE0.8 kmh NE 8.3 mph13.4 kmh 30.04 in1017.3 mb 0.00 in0.0 mm 0.00 in0.0 mm 0.00 in0.0 mm
12:15 PM 77.2°F25.1°C 70.2°F21.2°C 79% 0.6 mph N1.0 kmh N 3.8 mph6.1 kmh 30.04 in1017.3 mb 0.00 in0.0 mm 0.00 in0.0 mm 0.00 in0.0 mm
12:10 PM 77.5°F25.3°C 70.1°F21.2°C 78% 0.8 mph NW1.3 kmh NW 3.6 mph5.8 kmh 30.04 in1017.3 mb 0.00 in0.0 mm 0.00 in0.0 mm 0.00 in0.0 mm
12:05 PM 77.7°F25.4°C 70.3°F21.3°C 78% 0.9 mph NW1.4 kmh NW 8.5 mph13.7 kmh 30.04 in1017.3 mb 0.00 in0.0 mm 0.00 in0.0 mm 0.00 in0.0 mm
12:00 PM 78.1°F25.6°C 69.9°F21.1°C 76% 1.5 mph NW2.4 kmh NW 8.5 mph13.7 kmh 30.07 in1018.3 mb 0.00 in0.0 mm 0.00 in0.0 mm 0.00 in0.0 mm
11:55 AM 78.3°F25.7°C 69.3°F20.7°C 74% 2.0 mph NW3.2 kmh NW 6.9 mph11.1 kmh 30.07 in1018.3 mb 0.00 in0.0 mm 0.00 in0.0 mm 0.00 in0.0 mm
11:50 AM 78.6°F25.9°C 68.4°F20.2°C 71% 1.8 mph NW2.9 kmh NW 6.9 mph11.1 kmh 30.07 in1018.3 mb 0.00 in0.0 mm 0.00 in0.0 mm 0.00 in0.0 mm
11:45 AM 78.8°F26.0°C 68.6°F20.3°C 71% 1.3 mph NW2.1 kmh NW 8.1 mph13.0 kmh 30.07 in1018.3 mb 0.00 in0.0 mm 0.00 in0.0 mm 0.00 in0.0 mm
11:40 AM 79.0°F26.1°C 69.2°F20.7°C 72% 1.3 mph WNW2.1 kmh WNW 8.1 mph13.0 kmh 30.07 in1018.3 mb 0.00 in0.0 mm 0.00 in0.0 mm 0.00 in0.0 mm
11:35 AM 78.8°F26.0°C 69.4°F20.8°C 73% 1.7 mph W2.7 kmh W 5.1 mph8.2 kmh 30.07 in1018.3 mb 0.00 in0.0 mm 0.00 in0.0 mm 0.00 in0.0 mm
11:30 AM 78.6°F25.9°C 69.6°F20.9°C 74% 1.6 mph W2.6 kmh W 4.9 mph7.9 kmh 30.07 in1018.3 mb 0.00 in0.0 mm 0.00 in0.0 mm 0.00 in0.0 mm
11:25 AM 78.6°F25.9°C 70.0°F21.1°C 75% 0.7 mph W1.1 kmh W 4.9 mph7.9 kmh 30.07 in1018.3 mb 0.00 in0.0 mm 0.00 in0.0 mm 0.00 in0.0 mm
11:20 AM 78.4°F25.8°C 71.4°F21.9°C 79% 0.4 mph NW0.6 kmh NW 3.8 mph6.1 kmh 30.07 in1018.3 mb 0.00 in0.0 mm 0.00 in0.0 mm 0.00 in0.0 mm
11:15 AM 78.3°F25.7°C 68.1°F20.1°C 71% 0.6 mph NNW1.0 kmh NNW 4.5 mph7.2 kmh 30.07 in1018.3 mb 0.00 in0.0 mm 0.00 in0.0 mm 0.00 in0.0 mm
11:10 AM 78.4°F25.8°C 67.4°F19.7°C 69% 0.8 mph NW1.3 kmh NW 4.5 mph7.2 kmh 30.07 in1018.3 mb 0.00 in0.0 mm 0.00 in0.0 mm 0.00 in0.0 mm
11:05 AM 78.4°F25.8°C 66.6°F19.2°C 67% 1.1 mph WNW1.8 kmh WNW 4.5 mph7.2 kmh 30.07 in1018.3 mb 0.00 in0.0 mm 0.00 in0.0 mm 0.00 in0.0 mm
11:00 AM 78.6°F25.9°C 66.7°F19.3°C 67% 1.2 mph W1.9 kmh W 5.6 mph9.0 kmh 30.07 in1018.3 mb 0.00 in0.0 mm 0.00 in0.0 mm 0.00 in0.0 mm
10:55 AM 78.8°F26.0°C 66.9°F19.4°C 67% 0.7 mph WNW1.1 kmh WNW 5.6 mph9.0 kmh 30.07 in1018.3 mb 0.00 in0.0 mm 0.00 in0.0 mm 0.00 in0.0 mm
10:50 AM 78.8°F26.0°C 66.5°F19.2°C 66% 0.3 mph NNW0.5 kmh NNW 4.0 mph6.4 kmh 30.07 in1018.3 mb 0.00 in0.0 mm 0.00 in0.0 mm 0.00 in0.0 mm
10:45 AM 79.0°F26.1°C 66.2°F19.0°C 65% 0.3 mph N0.5 kmh N 5.8 mph9.3 kmh 30.07 in1018.3 mb 0.00 in0.0 mm 0.00 in0.0 mm 0.00 in0.0 mm
10:40 AM 79.0°F26.1°C 65.8°F18.8°C 64% 0.9 mph NNW1.4 kmh NNW 11.0 mph17.7 kmh 30.07 in1018.3 mb 0.00 in0.0 mm 0.00 in0.0 mm 0.00 in0.0 mm
10:35 AM 79.2°F26.2°C 65.9°F18.8°C 64% 2.1 mph NNW3.4 kmh NNW 11.0 mph17.7 kmh 30.07 in1018.3 mb 0.00 in0.0 mm 0.00 in0.0 mm 0.00 in0.0 mm
10:30 AM 79.0°F26.1°C 67.1°F19.5°C 67% 2.8 mph NNE4.5 kmh NNE 8.5 mph13.7 kmh 30.07 in1018.3 mb 0.00 in0.0 mm 0.00 in0.0 mm 0.00 in0.0 mm
10:25 AM 79.0°F26.1°C 66.6°F19.2°C 66% 2.2 mph NNE3.5 kmh NNE 8.5 mph13.7 kmh 30.07 in1018.3 mb 0.00 in0.0 mm 0.00 in0.0 mm 0.00 in0.0 mm
10:20 AM 78.6°F25.9°C 68.0°F20.0°C 70% 1.4 mph N2.3 kmh N 6.9 mph11.1 kmh 30.07 in1018.3 mb 0.00 in0.0 mm 0.00 in0.0 mm 0.00 in0.0 mm
10:15 AM 78.6°F25.9°C 66.7°F19.3°C 67% 1.5 mph N2.4 kmh N 7.2 mph11.6 kmh 30.07 in1018.3 mb 0.00 in0.0 mm 0.00 in0.0 mm 0.00 in0.0 mm
10:10 AM 78.6°F25.9°C 67.2°F19.6°C 68% 2.0 mph NNE3.2 kmh NNE 7.2 mph11.6 kmh 30.07 in1018.3 mb 0.00 in0.0 mm 0.00 in0.0 mm 0.00 in0.0 mm
10:05 AM 78.6°F25.9°C 66.7°F19.3°C 67% 2.2 mph NNE3.5 kmh NNE 8.9 mph14.3 kmh 30.07 in1018.3 mb 0.00 in0.0 mm 0.00 in0.0 mm 0.00 in0.0 mm
10:00 AM 78.6°F25.9°C 67.6°F19.8°C 69% 2.0 mph NNE3.2 kmh NNE 8.9 mph14.3 kmh 30.09 in1019.0 mb 0.00 in0.0 mm 0.00 in0.0 mm 0.00 in0.0 mm
09:55 AM 78.6°F25.9°C 66.7°F19.3°C 67% 2.1 mph NNE3.4 kmh NNE 8.9 mph14.3 kmh 30.09 in1019.0 mb 0.00 in0.0 mm 0.00 in0.0 mm 0.00 in0.0 mm
09:50 AM 78.4°F25.8°C 67.0°F19.4°C 68% 3.0 mph NNE4.8 kmh NNE 8.9 mph14.3 kmh 30.09 in1019.0 mb 0.00 in0.0 mm 0.00 in0.0 mm 0.00 in0.0 mm
09:45 AM 78.1°F25.6°C 67.5°F19.7°C 70% 3.7 mph NE6.0 kmh NE 8.5 mph13.7 kmh 30.09 in1019.0 mb 0.00 in0.0 mm 0.00 in0.0 mm 0.00 in0.0 mm
09:40 AM 77.9°F25.5°C 67.3°F19.6°C 70% 3.2 mph NNE5.1 kmh NNE 14.3 mph23.0 kmh 30.09 in1019.0 mb 0.00 in0.0 mm 0.00 in0.0 mm 0.00 in0.0 mm
09:35 AM 77.5°F25.3°C 68.2°F20.1°C 73% 3.0 mph NNE4.8 kmh NNE 14.3 mph23.0 kmh 30.09 in1019.0 mb 0.00 in0.0 mm 0.00 in0.0 mm 0.00 in0.0 mm
09:30 AM 77.2°F25.1°C 67.0°F19.4°C 71% 3.3 mph NNE5.3 kmh NNE 14.3 mph23.0 kmh 30.09 in1019.0 mb 0.00 in0.0 mm 0.00 in0.0 mm 0.00 in0.0 mm
09:25 AM 76.8°F24.9°C 67.1°F19.5°C 72% 3.0 mph NE4.8 kmh NE 8.1 mph13.0 kmh 30.09 in1019.0 mb 0.00 in0.0 mm 0.00 in0.0 mm 0.00 in0.0 mm
09:20 AM 76.6°F24.8°C 67.3°F19.6°C 73% 2.3 mph NE3.7 kmh NE 7.8 mph12.6 kmh 30.09 in1019.0 mb 0.00 in0.0 mm 0.00 in0.0 mm 0.00 in0.0 mm
09:15 AM 76.3°F24.6°C 66.2°F19.0°C 71% 2.6 mph N4.2 kmh N 9.8 mph15.8 kmh 30.09 in1019.0 mb 0.00 in0.0 mm 0.00 in0.0 mm 0.00 in0.0 mm
09:10 AM 75.9°F24.4°C 66.6°F19.2°C 73% 3.3 mph NNE5.3 kmh NNE 9.8 mph15.8 kmh 30.09 in1019.0 mb 0.00 in0.0 mm 0.00 in0.0 mm 0.00 in0.0 mm
09:05 AM 75.6°F24.2°C 66.3°F19.1°C 73% 3.0 mph NNE4.8 kmh NNE 9.8 mph15.8 kmh 30.09 in1019.0 mb 0.00 in0.0 mm 0.00 in0.0 mm 0.00 in0.0 mm
09:00 AM 74.8°F23.8°C 67.5°F19.7°C 78% 2.8 mph NNE4.5 kmh NNE 8.5 mph13.7 kmh 30.09 in1019.0 mb 0.00 in0.0 mm 0.00 in0.0 mm 0.00 in0.0 mm
08:55 AM 74.3°F23.5°C 66.2°F19.0°C 76% 3.0 mph NE4.8 kmh NE 8.5 mph13.7 kmh 30.09 in1019.0 mb 0.00 in0.0 mm 0.00 in0.0 mm 0.00 in0.0 mm
08:50 AM 73.8°F23.2°C 66.1°F18.9°C 77% 3.6 mph NE5.8 kmh NE 7.8 mph12.6 kmh 30.09 in1019.0 mb 0.00 in0.0 mm 0.00 in0.0 mm 0.00 in0.0 mm
08:45 AM 73.6°F23.1°C 66.3°F19.1°C 78% 3.9 mph NNE6.3 kmh NNE 11.6 mph18.7 kmh 30.09 in1019.0 mb 0.00 in0.0 mm 0.00 in0.0 mm 0.00 in0.0 mm
08:40 AM 73.2°F22.9°C 66.3°F19.1°C 79% 3.6 mph NNE5.8 kmh NNE 11.6 mph18.7 kmh 30.09 in1019.0 mb 0.00 in0.0 mm 0.00 in0.0 mm 0.00 in0.0 mm
08:35 AM 72.9°F22.7°C 66.7°F19.3°C 81% 3.3 mph NE5.3 kmh NE 8.5 mph13.7 kmh 30.09 in1019.0 mb 0.00 in0.0 mm 0.00 in0.0 mm 0.00 in0.0 mm
08:30 AM 72.7°F22.6°C 66.9°F19.4°C 82% 2.8 mph NE4.5 kmh NE 8.5 mph13.7 kmh 30.09 in1019.0 mb 0.00 in0.0 mm 0.00 in0.0 mm 0.00 in0.0 mm
08:25 AM 72.3°F22.4°C 66.2°F19.0°C 81% 2.3 mph N3.7 kmh N 8.5 mph13.7 kmh 30.09 in1019.0 mb 0.00 in0.0 mm 0.00 in0.0 mm 0.00 in0.0 mm
08:20 AM 72.1°F22.3°C 66.7°F19.3°C 83% 1.8 mph N2.9 kmh N 7.6 mph12.2 kmh 30.09 in1019.0 mb 0.00 in0.0 mm 0.00 in0.0 mm 0.00 in0.0 mm
08:15 AM 72.0°F22.2°C 66.5°F19.2°C 83% 1.7 mph N2.7 kmh N 5.6 mph9.0 kmh 30.09 in1019.0 mb 0.00 in0.0 mm 0.00 in0.0 mm 0.00 in0.0 mm
08:10 AM 71.8°F22.1°C 66.7°F19.3°C 84% 1.8 mph NE2.9 kmh NE 7.2 mph11.6 kmh 30.09 in1019.0 mb 0.00 in0.0 mm 0.00 in0.0 mm 0.00 in0.0 mm
08:05 AM 71.6°F22.0°C 66.5°F19.2°C 84% 1.9 mph NE3.1 kmh NE 7.2 mph11.6 kmh 30.09 in1019.0 mb 0.00 in0.0 mm 0.00 in0.0 mm 0.00 in0.0 mm
08:00 AM 71.4°F21.9°C 66.7°F19.3°C 85% 2.3 mph E3.7 kmh E 7.2 mph11.6 kmh 30.09 in1019.0 mb 0.00 in0.0 mm 0.00 in0.0 mm 0.00 in0.0 mm
07:55 AM 71.1°F21.7°C 66.7°F19.3°C 86% 2.3 mph E3.7 kmh E 7.2 mph11.6 kmh 30.09 in1019.0 mb 0.00 in0.0 mm 0.00 in0.0 mm 0.00 in0.0 mm
07:50 AM 70.5°F21.4°C 66.8°F19.3°C 88% 2.6 mph ENE4.2 kmh ENE 6.3 mph10.1 kmh 30.09 in1019.0 mb 0.00 in0.0 mm 0.00 in0.0 mm 0.00 in0.0 mm
07:45 AM 70.0°F21.1°C 66.9°F19.4°C 90% 3.0 mph E4.8 kmh E 5.8 mph9.3 kmh 30.09 in1019.0 mb 0.00 in0.0 mm 0.00 in0.0 mm 0.00 in0.0 mm
07:40 AM 69.3°F20.7°C 66.8°F19.3°C 92% 2.6 mph E4.2 kmh E 5.8 mph9.3 kmh 30.09 in1019.0 mb 0.00 in0.0 mm 0.00 in0.0 mm 0.00 in0.0 mm
07:35 AM 68.5°F20.3°C 66.7°F19.3°C 94% 2.1 mph E3.4 kmh E 5.1 mph8.2 kmh 30.09 in1019.0 mb 0.00 in0.0 mm 0.00 in0.0 mm 0.00 in0.0 mm
07:30 AM 67.8°F19.9°C 66.6°F19.2°C 96% 1.7 mph ENE2.7 kmh ENE 5.1 mph8.2 kmh 30.09 in1019.0 mb 0.00 in0.0 mm 0.00 in0.0 mm 0.00 in0.0 mm
07:25 AM 66.9°F19.4°C 66.3°F19.1°C 98% 0.7 mph NE1.1 kmh NE 4.9 mph7.9 kmh 30.09 in1019.0 mb 0.00 in0.0 mm 0.00 in0.0 mm 0.00 in0.0 mm
07:20 AM 66.4°F19.1°C 66.1°F18.9°C 99% 0.2 mph ENE0.3 kmh ENE 4.3 mph6.9 kmh 30.09 in1019.0 mb 0.00 in0.0 mm 0.00 in0.0 mm 0.00 in0.0 mm
07:15 AM 66.0°F18.9°C 65.4°F18.6°C 98% 0.2 mph ESE0.3 kmh ESE 3.8 mph6.1 kmh 30.09 in1019.0 mb 0.00 in0.0 mm 0.00 in0.0 mm 0.00 in0.0 mm
07:10 AM 65.8°F18.8°C 65.6°F18.7°C 99% Calm Calm 3.8 mph6.1 kmh 30.09 in1019.0 mb 0.00 in0.0 mm 0.00 in0.0 mm 0.00 in0.0 mm
07:05 AM 65.7°F18.7°C 65.4°F18.6°C 99% Calm Calm -- 30.09 in1019.0 mb 0.00 in0.0 mm 0.00 in0.0 mm 0.00 in0.0 mm
07:00 AM 65.5°F18.6°C 65.2°F18.4°C 99% Calm Calm -- 30.07 in1018.3 mb 0.00 in0.0 mm 0.00 in0.0 mm 0.00 in0.0 mm
06:55 AM 65.3°F18.5°C 65.0°F18.3°C 99% Calm Calm -- 30.07 in1018.3 mb 0.00 in0.0 mm 0.00 in0.0 mm 0.00 in0.0 mm
06:50 AM 65.1°F18.4°C 64.8°F18.2°C 99% Calm Calm -- 30.07 in1018.3 mb 0.00 in0.0 mm 0.00 in0.0 mm 0.00 in0.0 mm
06:45 AM 65.1°F18.4°C 64.5°F18.1°C 98% Calm Calm -- 30.07 in1018.3 mb 0.00 in0.0 mm 0.00 in0.0 mm 0.00 in0.0 mm
06:40 AM 64.9°F18.3°C 64.4°F18.0°C 98% Calm Calm -- 30.07 in1018.3 mb 0.00 in0.0 mm 0.00 in0.0 mm 0.00 in0.0 mm
06:35 AM 64.9°F18.3°C 64.1°F17.8°C 97% Calm Calm -- 30.07 in1018.3 mb 0.00 in0.0 mm 0.00 in0.0 mm 0.00 in0.0 mm
06:30 AM 64.9°F18.3°C 64.1°F17.8°C 97% Calm Calm -- 30.07 in1018.3 mb 0.00 in0.0 mm 0.00 in0.0 mm 0.00 in0.0 mm
06:25 AM 64.9°F18.3°C 64.1°F17.8°C 97% Calm Calm -- 30.07 in1018.3 mb 0.00 in0.0 mm 0.00 in0.0 mm 0.00 in0.0 mm
06:20 AM 64.9°F18.3°C 64.1°F17.8°C 97% Calm Calm -- 30.07 in1018.3 mb 0.00 in0.0 mm 0.00 in0.0 mm 0.00 in0.0 mm
06:15 AM 64.9°F18.3°C 64.1°F17.8°C 97% Calm Calm -- 30.07 in1018.3 mb 0.00 in0.0 mm 0.00 in0.0 mm 0.00 in0.0 mm
06:10 AM 64.9°F18.3°C 64.1°F17.8°C 97% Calm Calm -- 30.07 in1018.3 mb 0.00 in0.0 mm 0.00 in0.0 mm 0.00 in0.0 mm
06:05 AM 64.9°F18.3°C 64.1°F17.8°C 97% Calm Calm -- 30.07 in1018.3 mb 0.00 in0.0 mm 0.00 in0.0 mm 0.00 in0.0 mm
06:00 AM 65.1°F18.4°C 64.2°F17.9°C 97% Calm Calm -- 30.07 in1018.3 mb 0.00 in0.0 mm 0.00 in0.0 mm 0.00 in0.0 mm
05:55 AM 65.1°F18.4°C 64.2°F17.9°C 97% Calm Calm 0.9 mph1.4 kmh 30.07 in1018.3 mb 0.00 in0.0 mm 0.00 in0.0 mm 0.00 in0.0 mm
05:50 AM 64.9°F18.3°C 64.1°F17.8°C 97% Calm Calm 0.9 mph1.4 kmh 30.07 in1018.3 mb 0.00 in0.0 mm 0.00 in0.0 mm 0.00 in0.0 mm
05:45 AM 64.9°F18.3°C 64.1°F17.8°C 97% Calm Calm -- 30.07 in1018.3 mb 0.00 in0.0 mm 0.00 in0.0 mm 0.00 in0.0 mm
05:40 AM 65.1°F18.4°C 64.2°F17.9°C 97% 0.3 mph 0.5 kmh -- 30.07 in1018.3 mb 0.00 in0.0 mm 0.00 in0.0 mm 0.00 in0.0 mm
05:35 AM 64.9°F18.3°C 64.1°F17.8°C 97% 0.6 mph NE1.0 kmh NE 3.1 mph5.0 kmh 30.07 in1018.3 mb 0.00 in0.0 mm 0.00 in0.0 mm 0.00 in0.0 mm
05:30 AM 64.9°F18.3°C 64.1°F17.8°C 97% 0.4 mph NE0.6 kmh NE 3.1 mph5.0 kmh 30.07 in1018.3 mb 0.00 in0.0 mm 0.00 in0.0 mm 0.00 in0.0 mm
05:25 AM 64.9°F18.3°C 64.1°F17.8°C 97% 0.2 mph E0.3 kmh E 3.8 mph6.1 kmh 30.07 in1018.3 mb 0.00 in0.0 mm 0.00 in0.0 mm 0.00 in0.0 mm
05:20 AM 64.9°F18.3°C 64.1°F17.8°C 97% 0.4 mph E0.6 kmh E 3.8 mph6.1 kmh 30.07 in1018.3 mb 0.00 in0.0 mm 0.00 in0.0 mm 0.00 in0.0 mm
05:15 AM 64.9°F18.3°C 64.1°F17.8°C 97% 0.5 mph ENE0.8 kmh ENE 2.9 mph4.7 kmh 30.07 in1018.3 mb 0.00 in0.0 mm 0.00 in0.0 mm 0.00 in0.0 mm
05:10 AM 64.9°F18.3°C 64.1°F17.8°C 97% 0.5 mph E0.8 kmh E 2.9 mph4.7 kmh 30.07 in1018.3 mb 0.00 in0.0 mm 0.00 in0.0 mm 0.00 in0.0 mm
05:05 AM 65.1°F18.4°C 64.2°F17.9°C 97% 0.3 mph ESE0.5 kmh ESE 3.1 mph5.0 kmh 30.07 in1018.3 mb 0.00 in0.0 mm 0.00 in0.0 mm 0.00 in0.0 mm
05:00 AM 65.1°F18.4°C 64.2°F17.9°C 97% 0.2 mph ESE0.3 kmh ESE 3.6 mph5.8 kmh 30.07 in1018.3 mb 0.00 in0.0 mm 0.00 in0.0 mm 0.00 in0.0 mm
04:55 AM 65.1°F18.4°C 64.2°F17.9°C 97% 0.2 mph ESE0.3 kmh ESE 3.6 mph5.8 kmh 30.07 in1018.3 mb 0.00 in0.0 mm 0.00 in0.0 mm 0.00 in0.0 mm
04:50 AM 65.1°F18.4°C 64.0°F17.8°C 96% 0.7 mph ESE1.1 kmh ESE 3.1 mph5.0 kmh 30.07 in1018.3 mb 0.00 in0.0 mm 0.00 in0.0 mm 0.00 in0.0 mm
04:45 AM 65.1°F18.4°C 64.0°F17.8°C 96% 1.2 mph SE1.9 kmh SE 4.5 mph7.2 kmh 30.07 in1018.3 mb 0.00 in0.0 mm 0.00 in0.0 mm 0.00 in0.0 mm
04:40 AM 65.1°F18.4°C 64.0°F17.8°C 96% 0.9 mph SE1.4 kmh SE 4.5 mph7.2 kmh 30.07 in1018.3 mb 0.00 in0.0 mm 0.00 in0.0 mm 0.00 in0.0 mm
04:35 AM 65.1°F18.4°C 64.0°F17.8°C 96% 0.2 mph SE0.3 kmh SE 4.3 mph6.9 kmh 30.07 in1018.3 mb 0.00 in0.0 mm 0.00 in0.0 mm 0.00 in0.0 mm
04:30 AM 65.3°F18.5°C 64.1°F17.8°C 96% Calm Calm 4.3 mph6.9 kmh 30.07 in1018.3 mb 0.00 in0.0 mm 0.00 in0.0 mm 0.00 in0.0 mm
04:25 AM 65.3°F18.5°C 64.1°F17.8°C 96% Calm Calm -- 30.07 in1018.3 mb 0.00 in0.0 mm 0.00 in0.0 mm 0.00 in0.0 mm
04:20 AM 65.3°F18.5°C 64.1°F17.8°C 96% Calm Calm -- 30.07 in1018.3 mb 0.00 in0.0 mm 0.00 in0.0 mm 0.00 in0.0 mm
04:15 AM 65.5°F18.6°C 64.3°F17.9°C 96% Calm Calm 2.5 mph4.0 kmh 30.07 in1018.3 mb 0.00 in0.0 mm 0.00 in0.0 mm 0.00 in0.0 mm
04:10 AM 65.5°F18.6°C 64.3°F17.9°C 96% 0.1 mph ESE0.2 kmh ESE 3.6 mph5.8 kmh 30.07 in1018.3 mb 0.00 in0.0 mm 0.00 in0.0 mm 0.00 in0.0 mm
04:05 AM 65.5°F18.6°C 64.3°F17.9°C 96% 0.3 mph SE0.5 kmh SE 3.6 mph5.8 kmh 30.07 in1018.3 mb 0.00 in0.0 mm 0.00 in0.0 mm 0.00 in0.0 mm
04:00 AM 65.5°F18.6°C 64.3°F17.9°C 96% 0.5 mph SE0.8 kmh SE 3.8 mph6.1 kmh 30.07 in1018.3 mb 0.00 in0.0 mm 0.00 in0.0 mm 0.00 in0.0 mm
03:55 AM 65.5°F18.6°C 64.3°F17.9°C 96% 0.6 mph SE1.0 kmh SE 5.1 mph8.2 kmh 30.07 in1018.3 mb 0.00 in0.0 mm 0.00 in0.0 mm 0.00 in0.0 mm
03:50 AM 65.5°F18.6°C 64.3°F17.9°C 96% 0.8 mph ESE1.3 kmh ESE 5.1 mph8.2 kmh 30.07 in1018.3 mb 0.00 in0.0 mm 0.00 in0.0 mm 0.00 in0.0 mm
03:45 AM 65.5°F18.6°C 64.3°F17.9°C 96% 0.8 mph ESE1.3 kmh ESE 3.8 mph6.1 kmh 30.07 in1018.3 mb 0.00 in0.0 mm 0.00 in0.0 mm 0.00 in0.0 mm
03:40 AM 65.5°F18.6°C 64.3°F17.9°C 96% 0.7 mph ESE1.1 kmh ESE 3.8 mph6.1 kmh 30.07 in1018.3 mb 0.00 in0.0 mm 0.00 in0.0 mm 0.00 in0.0 mm
03:35 AM 65.5°F18.6°C 64.3°F17.9°C 96% 0.6 mph ESE1.0 kmh ESE 3.8 mph6.1 kmh 30.07 in1018.3 mb 0.00 in0.0 mm 0.00 in0.0 mm 0.00 in0.0 mm
03:30 AM 65.5°F18.6°C 64.3°F17.9°C 96% 0.4 mph SE0.6 kmh SE 4.5 mph7.2 kmh 30.07 in1018.3 mb 0.00 in0.0 mm 0.00 in0.0 mm 0.00 in0.0 mm
03:25 AM 65.3°F18.5°C 64.1°F17.8°C 96% 0.3 mph ESE0.5 kmh ESE 4.5 mph7.2 kmh 30.07 in1018.3 mb 0.00 in0.0 mm 0.00 in0.0 mm 0.00 in0.0 mm
03:20 AM 65.3°F18.5°C 64.1°F17.8°C 96% 0.2 mph ESE0.3 kmh ESE 4.5 mph7.2 kmh 30.07 in1018.3 mb 0.00 in0.0 mm 0.00 in0.0 mm 0.00 in0.0 mm
03:15 AM 65.3°F18.5°C 64.1°F17.8°C 96% 0.2 mph E0.3 kmh E 3.1 mph5.0 kmh 30.07 in1018.3 mb 0.00 in0.0 mm 0.00 in0.0 mm 0.00 in0.0 mm
03:10 AM 65.3°F18.5°C 64.1°F17.8°C 96% 0.2 mph SE0.3 kmh SE 2.9 mph4.7 kmh 30.07 in1018.3 mb 0.00 in0.0 mm 0.00 in0.0 mm 0.00 in0.0 mm
03:05 AM 65.3°F18.5°C 64.4°F18.0°C 97% 0.1 mph SE0.2 kmh SE 2.9 mph4.7 kmh 30.07 in1018.3 mb 0.00 in0.0 mm 0.00 in0.0 mm 0.00 in0.0 mm
03:00 AM 65.3°F18.5°C 64.4°F18.0°C 97% 0.1 mph 0.2 kmh -- 30.07 in1018.3 mb 0.00 in0.0 mm 0.00 in0.0 mm 0.00 in0.0 mm
02:55 AM 65.3°F18.5°C 64.4°F18.0°C 97% 0.2 mph 0.3 kmh -- 30.07 in1018.3 mb 0.00 in0.0 mm 0.00 in0.0 mm 0.00 in0.0 mm
02:50 AM 65.3°F18.5°C 64.4°F18.0°C 97% 0.2 mph S0.3 kmh S 2.9 mph4.7 kmh 30.07 in1018.3 mb 0.00 in0.0 mm 0.00 in0.0 mm 0.00 in0.0 mm
02:45 AM 65.3°F18.5°C 64.4°F18.0°C 97% 0.3 mph SE0.5 kmh SE 2.9 mph4.7 kmh 30.07 in1018.3 mb 0.00 in0.0 mm 0.00 in0.0 mm 0.00 in0.0 mm
02:40 AM 65.3°F18.5°C 64.4°F18.0°C 97% 0.5 mph SE0.8 kmh SE 2.5 mph4.0 kmh 30.07 in1018.3 mb 0.00 in0.0 mm 0.00 in0.0 mm 0.00 in0.0 mm
02:35 AM 65.1°F18.4°C 64.2°F17.9°C 97% 0.9 mph SE1.4 kmh SE 2.5 mph4.0 kmh 30.07 in1018.3 mb 0.00 in0.0 mm 0.00 in0.0 mm 0.00 in0.0 mm
02:30 AM 65.1°F18.4°C 64.2°F17.9°C 97% 1.4 mph E2.3 kmh E 4.3 mph6.9 kmh 30.07 in1018.3 mb 0.00 in0.0 mm 0.00 in0.0 mm 0.00 in0.0 mm
02:25 AM 65.1°F18.4°C 64.2°F17.9°C 97% 1.7 mph ESE2.7 kmh ESE 4.5 mph7.2 kmh 30.07 in1018.3 mb 0.00 in0.0 mm 0.00 in0.0 mm 0.00 in0.0 mm
02:20 AM 65.1°F18.4°C 64.2°F17.9°C 97% 1.3 mph ESE2.1 kmh ESE 4.9 mph7.9 kmh 30.07 in1018.3 mb 0.00 in0.0 mm 0.00 in0.0 mm 0.00 in0.0 mm
02:15 AM 65.1°F18.4°C 64.2°F17.9°C 97% 0.6 mph ESE1.0 kmh ESE 4.9 mph7.9 kmh 30.07 in1018.3 mb 0.00 in0.0 mm 0.00 in0.0 mm 0.00 in0.0 mm
02:10 AM 65.1°F18.4°C 64.2°F17.9°C 97% 0.4 mph SE0.6 kmh SE 3.8 mph6.1 kmh 30.07 in1018.3 mb 0.00 in0.0 mm 0.00 in0.0 mm 0.00 in0.0 mm
02:05 AM 65.1°F18.4°C 64.2°F17.9°C 97% 0.5 mph SE0.8 kmh SE 3.8 mph6.1 kmh 30.07 in1018.3 mb 0.00 in0.0 mm 0.00 in0.0 mm 0.00 in0.0 mm
02:00 AM 65.1°F18.4°C 64.2°F17.9°C 97% 0.6 mph SE1.0 kmh SE 4.3 mph6.9 kmh 30.09 in1019.0 mb 0.00 in0.0 mm 0.00 in0.0 mm 0.00 in0.0 mm
01:55 AM 65.1°F18.4°C 64.2°F17.9°C 97% 0.6 mph SSE1.0 kmh SSE 4.3 mph6.9 kmh 30.09 in1019.0 mb 0.00 in0.0 mm 0.00 in0.0 mm 0.00 in0.0 mm
01:50 AM 65.1°F18.4°C 64.2°F17.9°C 97% 0.6 mph SE1.0 kmh SE 3.6 mph5.8 kmh 30.09 in1019.0 mb 0.00 in0.0 mm 0.00 in0.0 mm 0.00 in0.0 mm
01:45 AM 65.1°F18.4°C 64.2°F17.9°C 97% 0.5 mph SE0.8 kmh SE 5.1 mph8.2 kmh 30.09 in1019.0 mb 0.00 in0.0 mm 0.00 in0.0 mm 0.00 in0.0 mm
01:40 AM 65.1°F18.4°C 64.2°F17.9°C 97% 0.3 mph SE0.5 kmh SE 5.1 mph8.2 kmh 30.09 in1019.0 mb 0.00 in0.0 mm 0.00 in0.0 mm 0.00 in0.0 mm
01:35 AM 65.1°F18.4°C 64.2°F17.9°C 97% 0.8 mph SE1.3 kmh SE 3.1 mph5.0 kmh 30.09 in1019.0 mb 0.00 in0.0 mm 0.00 in0.0 mm 0.00 in0.0 mm
01:30 AM 65.1°F18.4°C 64.2°F17.9°C 97% 1.5 mph ESE2.4 kmh ESE 3.8 mph6.1 kmh 30.09 in1019.0 mb 0.00 in0.0 mm 0.00 in0.0 mm 0.00 in0.0 mm
01:25 AM 65.1°F18.4°C 64.2°F17.9°C 97% 1.1 mph ESE1.8 kmh ESE 4.9 mph7.9 kmh 30.09 in1019.0 mb 0.00 in0.0 mm 0.00 in0.0 mm 0.00 in0.0 mm
01:20 AM 65.3°F18.5°C 64.4°F18.0°C 97% 1.0 mph ESE1.6 kmh ESE 4.9 mph7.9 kmh 30.09 in1019.0 mb 0.00 in0.0 mm 0.00 in0.0 mm 0.00 in0.0 mm
01:15 AM 65.1°F18.4°C 64.0°F17.8°C 96% 1.5 mph ESE2.4 kmh ESE 4.5 mph7.2 kmh 30.09 in1019.0 mb 0.00 in0.0 mm 0.00 in0.0 mm 0.00 in0.0 mm
01:10 AM 65.3°F18.5°C 64.1°F17.8°C 96% 1.7 mph E2.7 kmh E 4.5 mph7.2 kmh 30.09 in1019.0 mb 0.00 in0.0 mm 0.00 in0.0 mm 0.00 in0.0 mm
01:05 AM 65.3°F18.5°C 64.4°F18.0°C 97% 1.6 mph E2.6 kmh E 3.8 mph6.1 kmh 30.09 in1019.0 mb 0.00 in0.0 mm 0.00 in0.0 mm 0.00 in0.0 mm
01:00 AM 65.3°F18.5°C 64.4°F18.0°C 97% 1.9 mph ESE3.1 kmh ESE 3.8 mph6.1 kmh 30.12 in1020.0 mb 0.00 in0.0 mm 0.00 in0.0 mm 0.00 in0.0 mm
12:55 AM 65.3°F18.5°C 64.4°F18.0°C 97% 1.9 mph ESE3.1 kmh ESE 5.6 mph9.0 kmh 30.12 in1020.0 mb 0.00 in0.0 mm 0.00 in0.0 mm 0.00 in0.0 mm
12:50 AM 65.3°F18.5°C 64.4°F18.0°C 97% 2.1 mph ESE3.4 kmh ESE 5.6 mph9.0 kmh 30.12 in1020.0 mb 0.00 in0.0 mm 0.00 in0.0 mm 0.00 in0.0 mm
12:45 AM 65.3°F18.5°C 64.4°F18.0°C 97% 2.4 mph SE3.9 kmh SE 6.3 mph10.1 kmh 30.12 in1020.0 mb 0.00 in0.0 mm 0.00 in0.0 mm 0.00 in0.0 mm
12:40 AM 65.3°F18.5°C 64.1°F17.8°C 96% 2.3 mph SE3.7 kmh SE 6.3 mph10.1 kmh 30.12 in1020.0 mb 0.00 in0.0 mm 0.00 in0.0 mm 0.00 in0.0 mm
12:35 AM 65.3°F18.5°C 64.1°F17.8°C 96% 2.1 mph ESE3.4 kmh ESE 6.3 mph10.1 kmh 30.12 in1020.0 mb 0.00 in0.0 mm 0.00 in0.0 mm 0.00 in0.0 mm
12:30 AM 65.3°F18.5°C 64.4°F18.0°C 97% 1.7 mph SE2.7 kmh SE 6.3 mph10.1 kmh 30.12 in1020.0 mb 0.00 in0.0 mm 0.00 in0.0 mm 0.00 in0.0 mm
12:25 AM 65.3°F18.5°C 64.1°F17.8°C 96% 1.4 mph ESE2.3 kmh ESE 4.9 mph7.9 kmh 30.12 in1020.0 mb 0.00 in0.0 mm 0.00 in0.0 mm 0.00 in0.0 mm
12:20 AM 65.5°F18.6°C 64.3°F17.9°C 96% 1.6 mph ESE2.6 kmh ESE 5.1 mph8.2 kmh 30.12 in1020.0 mb 0.00 in0.0 mm 0.00 in0.0 mm 0.00 in0.0 mm
12:15 AM 65.5°F18.6°C 64.3°F17.9°C 96% 1.3 mph ESE2.1 kmh ESE 5.6 mph9.0 kmh 30.12 in1020.0 mb 0.00 in0.0 mm 0.00 in0.0 mm 0.00 in0.0 mm
12:10 AM 65.5°F18.6°C 64.3°F17.9°C 96% 0.8 mph ESE1.3 kmh ESE 5.6 mph9.0 kmh 30.12 in1020.0 mb 0.00 in0.0 mm 0.00 in0.0 mm 0.00 in0.0 mm
12:05 AM 65.5°F18.6°C 64.3°F17.9°C 96% 1.3 mph E2.1 kmh E 2.9 mph4.7 kmh 30.12 in1020.0 mb 0.00 in0.0 mm 0.00 in0.0 mm 0.00 in0.0 mm
12:00 AM 65.5°F18.6°C 64.3°F17.9°C 96% 2.0 mph E3.2 kmh E 5.8 mph9.3 kmh 30.12 in1020.0 mb 0.00 in0.0 mm 0.00 in0.0 mm 0.00 in0.0 mm